sensor_id;sensor_type;location;lat;lon;timestamp;temperature;humidity
19496;DHT22;9888;48.606;9.630;2023-02-04T00:01:07;4.50;99.90
19496;DHT22;9888;48.606;9.630;2023-02-04T00:03:36;4.50;99.90
19496;DHT22;9888;48.606;9.630;2023-02-04T00:06:04;4.50;99.90
19496;DHT22;9888;48.606;9.630;2023-02-04T00:08:32;4.50;99.90
19496;DHT22;9888;48.606;9.630;2023-02-04T00:10:59;4.50;99.90
19496;DHT22;9888;48.606;9.630;2023-02-04T00:13:27;4.50;99.90
19496;DHT22;9888;48.606;9.630;2023-02-04T00:15:54;4.60;99.90
19496;DHT22;9888;48.606;9.630;2023-02-04T00:18:21;4.60;99.90
19496;DHT22;9888;48.606;9.630;2023-02-04T00:20:48;4.60;99.90
19496;DHT22;9888;48.606;9.630;2023-02-04T00:23:15;4.60;99.90
19496;DHT22;9888;48.606;9.630;2023-02-04T00:25:44;4.60;99.90
19496;DHT22;9888;48.606;9.630;2023-02-04T00:28:11;4.60;99.90
19496;DHT22;9888;48.606;9.630;2023-02-04T00:30:37;4.60;99.90
19496;DHT22;9888;48.606;9.630;2023-02-04T00:33:04;4.60;99.90
19496;DHT22;9888;48.606;9.630;2023-02-04T00:35:31;4.60;99.90
19496;DHT22;9888;48.606;9.630;2023-02-04T00:37:58;4.60;99.90
19496;DHT22;9888;48.606;9.630;2023-02-04T00:40:27;4.60;99.90
19496;DHT22;9888;48.606;9.630;2023-02-04T00:42:54;4.60;99.90
19496;DHT22;9888;48.606;9.630;2023-02-04T00:45:20;4.60;99.90
19496;DHT22;9888;48.606;9.630;2023-02-04T00:47:47;4.70;99.90
19496;DHT22;9888;48.606;9.630;2023-02-04T00:50:15;4.60;99.90
19496;DHT22;9888;48.606;9.630;2023-02-04T00:52:43;4.60;99.90
19496;DHT22;9888;48.606;9.630;2023-02-04T00:55:11;4.60;99.90
19496;DHT22;9888;48.606;9.630;2023-02-04T00:57:38;4.50;99.90
19496;DHT22;9888;48.606;9.630;2023-02-04T01:00:06;4.60;99.90
19496;DHT22;9888;48.606;9.630;2023-02-04T01:02:37;4.60;99.90
19496;DHT22;9888;48.606;9.630;2023-02-04T01:05:07;4.60;99.90
19496;DHT22;9888;48.606;9.630;2023-02-04T01:07:34;4.50;99.90
19496;DHT22;9888;48.606;9.630;2023-02-04T01:10:03;4.60;99.90
19496;DHT22;9888;48.606;9.630;2023-02-04T01:12:29;4.60;99.90
19496;DHT22;9888;48.606;9.630;2023-02-04T01:14:57;4.60;99.90
19496;DHT22;9888;48.606;9.630;2023-02-04T01:17:25;4.60;99.90
19496;DHT22;9888;48.606;9.630;2023-02-04T01:19:54;4.60;99.90
19496;DHT22;9888;48.606;9.630;2023-02-04T01:22:21;4.60;99.90
19496;DHT22;9888;48.606;9.630;2023-02-04T01:24:48;4.70;99.90
19496;DHT22;9888;48.606;9.630;2023-02-04T01:27:18;4.70;99.90
19496;DHT22;9888;48.606;9.630;2023-02-04T01:29:45;4.70;99.90
19496;DHT22;9888;48.606;9.630;2023-02-04T01:32:11;4.70;99.90
19496;DHT22;9888;48.606;9.630;2023-02-04T01:34:39;4.70;99.90
19496;DHT22;9888;48.606;9.630;2023-02-04T01:37:08;4.70;99.90
19496;DHT22;9888;48.606;9.630;2023-02-04T01:39:35;4.70;99.90
19496;DHT22;9888;48.606;9.630;2023-02-04T01:42:02;4.70;99.90
19496;DHT22;9888;48.606;9.630;2023-02-04T01:44:31;4.70;99.90
19496;DHT22;9888;48.606;9.630;2023-02-04T01:46:59;4.70;99.90
19496;DHT22;9888;48.606;9.630;2023-02-04T01:49:27;4.60;99.90
19496;DHT22;9888;48.606;9.630;2023-02-04T01:51:55;4.60;99.90
19496;DHT22;9888;48.606;9.630;2023-02-04T01:54:23;4.60;99.90
19496;DHT22;9888;48.606;9.630;2023-02-04T01:56:52;4.60;99.90
19496;DHT22;9888;48.606;9.630;2023-02-04T01:59:21;4.60;99.90
19496;DHT22;9888;48.606;9.630;2023-02-04T02:01:50;4.60;99.90
19496;DHT22;9888;48.606;9.630;2023-02-04T02:04:26;4.60;99.90
19496;DHT22;9888;48.606;9.630;2023-02-04T02:06:57;4.60;99.90
19496;DHT22;9888;48.606;9.630;2023-02-04T02:09:28;4.60;99.90
19496;DHT22;9888;48.606;9.630;2023-02-04T02:11:57;4.50;99.90
19496;DHT22;9888;48.606;9.630;2023-02-04T02:14:24;4.50;99.90
19496;DHT22;9888;48.606;9.630;2023-02-04T02:16:51;4.50;99.90
19496;DHT22;9888;48.606;9.630;2023-02-04T02:19:31;4.50;99.90
19496;DHT22;9888;48.606;9.630;2023-02-04T02:22:12;4.50;99.90
19496;DHT22;9888;48.606;9.630;2023-02-04T02:24:44;4.40;99.90
19496;DHT22;9888;48.606;9.630;2023-02-04T02:27:12;4.50;99.90
19496;DHT22;9888;48.606;9.630;2023-02-04T02:29:40;4.50;99.90
19496;DHT22;9888;48.606;9.630;2023-02-04T02:32:08;4.50;99.90
19496;DHT22;9888;48.606;9.630;2023-02-04T02:34:36;4.60;99.90
19496;DHT22;9888;48.606;9.630;2023-02-04T02:37:05;4.50;99.90
19496;DHT22;9888;48.606;9.630;2023-02-04T02:39:36;4.50;99.90
19496;DHT22;9888;48.606;9.630;2023-02-04T02:42:04;4.50;99.90
19496;DHT22;9888;48.606;9.630;2023-02-04T02:44:31;4.60;99.90
19496;DHT22;9888;48.606;9.630;2023-02-04T02:47:00;4.50;99.90
19496;DHT22;9888;48.606;9.630;2023-02-04T02:49:29;4.50;99.90
19496;DHT22;9888;48.606;9.630;2023-02-04T02:51:57;4.50;99.90
19496;DHT22;9888;48.606;9.630;2023-02-04T02:54:29;4.50;99.90
19496;DHT22;9888;48.606;9.630;2023-02-04T02:56:58;4.50;99.90
19496;DHT22;9888;48.606;9.630;2023-02-04T02:59:26;4.50;99.90
19496;DHT22;9888;48.606;9.630;2023-02-04T03:01:57;4.50;99.90
19496;DHT22;9888;48.606;9.630;2023-02-04T03:04:31;4.40;99.90
19496;DHT22;9888;48.606;9.630;2023-02-04T03:07:00;4.50;99.90
19496;DHT22;9888;48.606;9.630;2023-02-04T03:09:31;4.40;99.90
19496;DHT22;9888;48.606;9.630;2023-02-04T03:15:08;4.40;99.90
19496;DHT22;9888;48.606;9.630;2023-02-04T03:17:35;4.40;99.90
19496;DHT22;9888;48.606;9.630;2023-02-04T03:20:03;4.40;99.90
19496;DHT22;9888;48.606;9.630;2023-02-04T03:25:34;4.30;99.90
19496;DHT22;9888;48.606;9.630;2023-02-04T03:28:01;4.30;99.90
19496;DHT22;9888;48.606;9.630;2023-02-04T03:30:29;4.30;99.90
19496;DHT22;9888;48.606;9.630;2023-02-04T03:32:57;4.30;99.90
19496;DHT22;9888;48.606;9.630;2023-02-04T03:35:24;4.30;99.90
19496;DHT22;9888;48.606;9.630;2023-02-04T03:37:52;4.30;99.90
19496;DHT22;9888;48.606;9.630;2023-02-04T03:40:21;4.30;99.90
19496;DHT22;9888;48.606;9.630;2023-02-04T03:42:50;4.30;99.90
19496;DHT22;9888;48.606;9.630;2023-02-04T03:45:18;4.30;99.90
19496;DHT22;9888;48.606;9.630;2023-02-04T03:47:45;4.30;99.90
19496;DHT22;9888;48.606;9.630;2023-02-04T03:50:12;4.30;99.90
19496;DHT22;9888;48.606;9.630;2023-02-04T03:52:39;4.30;99.90
19496;DHT22;9888;48.606;9.630;2023-02-04T03:55:07;4.20;99.90
19496;DHT22;9888;48.606;9.630;2023-02-04T03:57:34;4.20;99.90
19496;DHT22;9888;48.606;9.630;2023-02-04T04:00:00;4.20;99.90
19496;DHT22;9888;48.606;9.630;2023-02-04T04:02:27;4.20;99.90
19496;DHT22;9888;48.606;9.630;2023-02-04T04:04:55;4.20;99.90
19496;DHT22;9888;48.606;9.630;2023-02-04T04:07:22;4.20;99.90
19496;DHT22;9888;48.606;9.630;2023-02-04T04:10:12;4.20;99.90
19496;DHT22;9888;48.606;9.630;2023-02-04T04:12:39;4.20;99.90
19496;DHT22;9888;48.606;9.630;2023-02-04T04:15:06;4.20;99.90
19496;DHT22;9888;48.606;9.630;2023-02-04T04:17:33;4.10;99.90
19496;DHT22;9888;48.606;9.630;2023-02-04T04:20:00;4.10;99.90
19496;DHT22;9888;48.606;9.630;2023-02-04T04:22:27;4.10;99.90
19496;DHT22;9888;48.606;9.630;2023-02-04T04:24:54;4.10;99.90
19496;DHT22;9888;48.606;9.630;2023-02-04T04:27:21;4.00;99.90
19496;DHT22;9888;48.606;9.630;2023-02-04T04:29:51;4.10;99.90
19496;DHT22;9888;48.606;9.630;2023-02-04T04:32:17;4.00;99.90
19496;DHT22;9888;48.606;9.630;2023-02-04T04:34:45;4.00;99.90
19496;DHT22;9888;48.606;9.630;2023-02-04T04:37:12;4.00;99.90
19496;DHT22;9888;48.606;9.630;2023-02-04T04:39:40;4.00;99.90
19496;DHT22;9888;48.606;9.630;2023-02-04T04:42:08;4.00;99.90
19496;DHT22;9888;48.606;9.630;2023-02-04T04:44:35;4.00;99.90
19496;DHT22;9888;48.606;9.630;2023-02-04T04:47:02;4.00;99.90
19496;DHT22;9888;48.606;9.630;2023-02-04T04:49:30;4.00;99.90
19496;DHT22;9888;48.606;9.630;2023-02-04T04:51:57;4.00;99.90
19496;DHT22;9888;48.606;9.630;2023-02-04T04:54:24;4.00;99.90
19496;DHT22;9888;48.606;9.630;2023-02-04T04:56:51;4.00;99.90
19496;DHT22;9888;48.606;9.630;2023-02-04T04:59:18;4.00;99.90
19496;DHT22;9888;48.606;9.630;2023-02-04T05:01:45;4.00;99.90
19496;DHT22;9888;48.606;9.630;2023-02-04T05:04:13;3.90;99.90
19496;DHT22;9888;48.606;9.630;2023-02-04T05:06:41;3.90;99.90
19496;DHT22;9888;48.606;9.630;2023-02-04T05:09:08;3.90;99.90
19496;DHT22;9888;48.606;9.630;2023-02-04T05:11:36;3.90;99.90
19496;DHT22;9888;48.606;9.630;2023-02-04T05:14:03;3.90;99.90
19496;DHT22;9888;48.606;9.630;2023-02-04T05:16:31;3.90;99.90
19496;DHT22;9888;48.606;9.630;2023-02-04T05:18:58;3.90;99.90
19496;DHT22;9888;48.606;9.630;2023-02-04T05:21:24;3.80;99.90
19496;DHT22;9888;48.606;9.630;2023-02-04T05:23:51;3.80;99.90
19496;DHT22;9888;48.606;9.630;2023-02-04T05:26:19;3.80;99.90
19496;DHT22;9888;48.606;9.630;2023-02-04T05:28:46;3.80;99.90
19496;DHT22;9888;48.606;9.630;2023-02-04T05:31:13;3.80;99.90
19496;DHT22;9888;48.606;9.630;2023-02-04T05:33:40;3.80;99.90
19496;DHT22;9888;48.606;9.630;2023-02-04T05:36:07;3.80;99.90
19496;DHT22;9888;48.606;9.630;2023-02-04T05:38:34;3.80;99.90
19496;DHT22;9888;48.606;9.630;2023-02-04T05:41:01;3.80;99.90
19496;DHT22;9888;48.606;9.630;2023-02-04T05:43:30;3.80;99.90
19496;DHT22;9888;48.606;9.630;2023-02-04T05:45:59;3.80;99.90
19496;DHT22;9888;48.606;9.630;2023-02-04T05:48:25;3.80;99.90
19496;DHT22;9888;48.606;9.630;2023-02-04T05:50:53;3.80;99.90
19496;DHT22;9888;48.606;9.630;2023-02-04T05:53:20;3.80;99.90
19496;DHT22;9888;48.606;9.630;2023-02-04T05:55:46;3.70;99.90
19496;DHT22;9888;48.606;9.630;2023-02-04T05:58:14;3.70;99.90
19496;DHT22;9888;48.606;9.630;2023-02-04T06:00:41;3.70;99.90
19496;DHT22;9888;48.606;9.630;2023-02-04T06:03:08;3.70;99.90
19496;DHT22;9888;48.606;9.630;2023-02-04T06:05:35;3.70;99.90
19496;DHT22;9888;48.606;9.630;2023-02-04T06:08:02;3.70;99.90
19496;DHT22;9888;48.606;9.630;2023-02-04T06:10:29;3.70;99.90
19496;DHT22;9888;48.606;9.630;2023-02-04T06:12:56;3.70;99.90
19496;DHT22;9888;48.606;9.630;2023-02-04T06:15:24;3.70;99.90
19496;DHT22;9888;48.606;9.630;2023-02-04T06:17:51;3.60;99.90
19496;DHT22;9888;48.606;9.630;2023-02-04T06:20:18;3.60;99.90
19496;DHT22;9888;48.606;9.630;2023-02-04T06:22:46;3.60;99.90
19496;DHT22;9888;48.606;9.630;2023-02-04T06:25:17;3.60;99.90
19496;DHT22;9888;48.606;9.630;2023-02-04T06:27:45;3.60;99.90
19496;DHT22;9888;48.606;9.630;2023-02-04T06:30:13;3.60;99.90
19496;DHT22;9888;48.606;9.630;2023-02-04T06:32:40;3.60;99.90
19496;DHT22;9888;48.606;9.630;2023-02-04T06:35:09;3.60;99.90
19496;DHT22;9888;48.606;9.630;2023-02-04T06:37:38;3.60;99.90
19496;DHT22;9888;48.606;9.630;2023-02-04T06:40:06;3.60;99.90
19496;DHT22;9888;48.606;9.630;2023-02-04T06:42:34;3.60;99.90
19496;DHT22;9888;48.606;9.630;2023-02-04T06:45:02;3.60;99.90
19496;DHT22;9888;48.606;9.630;2023-02-04T06:47:29;3.60;99.90
19496;DHT22;9888;48.606;9.630;2023-02-04T06:49:56;3.60;99.90
19496;DHT22;9888;48.606;9.630;2023-02-04T06:52:24;3.60;99.90
19496;DHT22;9888;48.606;9.630;2023-02-04T06:54:51;3.70;99.90
19496;DHT22;9888;48.606;9.630;2023-02-04T06:57:18;3.60;99.90
19496;DHT22;9888;48.606;9.630;2023-02-04T06:59:45;3.60;99.90
19496;DHT22;9888;48.606;9.630;2023-02-04T07:02:12;3.60;99.90
19496;DHT22;9888;48.606;9.630;2023-02-04T07:04:39;3.60;99.90
19496;DHT22;9888;48.606;9.630;2023-02-04T07:07:10;3.60;99.90
19496;DHT22;9888;48.606;9.630;2023-02-04T07:09:38;3.50;99.90
19496;DHT22;9888;48.606;9.630;2023-02-04T07:12:05;3.50;99.90
19496;DHT22;9888;48.606;9.630;2023-02-04T07:14:33;3.50;99.90
19496;DHT22;9888;48.606;9.630;2023-02-04T07:16:59;3.50;99.90
19496;DHT22;9888;48.606;9.630;2023-02-04T07:19:26;3.50;99.90
19496;DHT22;9888;48.606;9.630;2023-02-04T07:21:54;3.50;99.90
19496;DHT22;9888;48.606;9.630;2023-02-04T07:24:22;3.60;99.90
19496;DHT22;9888;48.606;9.630;2023-02-04T07:26:50;3.60;99.90
19496;DHT22;9888;48.606;9.630;2023-02-04T07:29:19;3.60;99.90
19496;DHT22;9888;48.606;9.630;2023-02-04T07:31:48;3.60;99.90
19496;DHT22;9888;48.606;9.630;2023-02-04T07:34:16;3.50;99.90
19496;DHT22;9888;48.606;9.630;2023-02-04T07:36:43;3.50;99.90
19496;DHT22;9888;48.606;9.630;2023-02-04T07:39:10;3.50;99.90
19496;DHT22;9888;48.606;9.630;2023-02-04T07:41:37;3.50;99.90
19496;DHT22;9888;48.606;9.630;2023-02-04T07:44:05;3.50;99.90
19496;DHT22;9888;48.606;9.630;2023-02-04T07:46:32;3.50;99.90
19496;DHT22;9888;48.606;9.630;2023-02-04T07:48:58;3.50;99.90
19496;DHT22;9888;48.606;9.630;2023-02-04T07:51:26;3.50;99.90
19496;DHT22;9888;48.606;9.630;2023-02-04T07:53:53;3.50;99.90
19496;DHT22;9888;48.606;9.630;2023-02-04T07:56:20;3.40;99.90
19496;DHT22;9888;48.606;9.630;2023-02-04T07:58:48;3.40;99.90
19496;DHT22;9888;48.606;9.630;2023-02-04T08:01:15;3.40;99.90
19496;DHT22;9888;48.606;9.630;2023-02-04T08:03:42;3.40;99.90
19496;DHT22;9888;48.606;9.630;2023-02-04T08:06:10;3.40;99.90
19496;DHT22;9888;48.606;9.630;2023-02-04T08:08:37;3.40;99.90
19496;DHT22;9888;48.606;9.630;2023-02-04T08:11:04;3.50;99.90
19496;DHT22;9888;48.606;9.630;2023-02-04T08:13:31;3.50;99.90
19496;DHT22;9888;48.606;9.630;2023-02-04T08:15:59;3.50;99.90
19496;DHT22;9888;48.606;9.630;2023-02-04T08:18:26;3.50;99.90
19496;DHT22;9888;48.606;9.630;2023-02-04T08:20:54;3.60;99.90
19496;DHT22;9888;48.606;9.630;2023-02-04T08:23:22;3.60;99.90
19496;DHT22;9888;48.606;9.630;2023-02-04T08:25:50;3.70;99.90
19496;DHT22;9888;48.606;9.630;2023-02-04T08:28:17;3.70;99.90
19496;DHT22;9888;48.606;9.630;2023-02-04T08:30:44;3.80;99.90
19496;DHT22;9888;48.606;9.630;2023-02-04T08:33:12;3.80;99.90
19496;DHT22;9888;48.606;9.630;2023-02-04T08:35:40;3.90;99.90
19496;DHT22;9888;48.606;9.630;2023-02-04T08:38:07;3.90;99.90
19496;DHT22;9888;48.606;9.630;2023-02-04T08:40:35;4.00;99.90
19496;DHT22;9888;48.606;9.630;2023-02-04T08:43:02;4.00;99.90
19496;DHT22;9888;48.606;9.630;2023-02-04T08:45:29;4.10;99.90
19496;DHT22;9888;48.606;9.630;2023-02-04T08:47:57;4.10;99.90
19496;DHT22;9888;48.606;9.630;2023-02-04T08:50:24;4.10;99.90
19496;DHT22;9888;48.606;9.630;2023-02-04T08:52:53;4.40;99.90
19496;DHT22;9888;48.606;9.630;2023-02-04T08:55:20;4.50;99.90
19496;DHT22;9888;48.606;9.630;2023-02-04T08:57:48;4.40;99.90
19496;DHT22;9888;48.606;9.630;2023-02-04T09:00:16;4.40;99.90
19496;DHT22;9888;48.606;9.630;2023-02-04T09:02:43;4.50;99.90
19496;DHT22;9888;48.606;9.630;2023-02-04T09:05:17;4.40;99.90
19496;DHT22;9888;48.606;9.630;2023-02-04T09:07:45;4.50;99.90
19496;DHT22;9888;48.606;9.630;2023-02-04T09:10:13;4.40;99.90
19496;DHT22;9888;48.606;9.630;2023-02-04T09:12:43;4.40;99.90
19496;DHT22;9888;48.606;9.630;2023-02-04T09:15:14;4.30;99.90
19496;DHT22;9888;48.606;9.630;2023-02-04T09:17:45;4.20;99.90
19496;DHT22;9888;48.606;9.630;2023-02-04T09:20:16;4.20;99.90
19496;DHT22;9888;48.606;9.630;2023-02-04T09:22:44;4.20;99.90
19496;DHT22;9888;48.606;9.630;2023-02-04T09:25:12;4.30;99.90
19496;DHT22;9888;48.606;9.630;2023-02-04T09:27:40;4.30;99.90
19496;DHT22;9888;48.606;9.630;2023-02-04T09:30:08;4.40;99.90
19496;DHT22;9888;48.606;9.630;2023-02-04T09:32:39;4.50;99.90
19496;DHT22;9888;48.606;9.630;2023-02-04T09:35:09;4.60;99.90
19496;DHT22;9888;48.606;9.630;2023-02-04T09:37:38;4.60;99.90
19496;DHT22;9888;48.606;9.630;2023-02-04T09:40:06;4.70;99.90
19496;DHT22;9888;48.606;9.630;2023-02-04T09:42:35;4.70;99.90
19496;DHT22;9888;48.606;9.630;2023-02-04T09:45:03;4.90;99.90
19496;DHT22;9888;48.606;9.630;2023-02-04T09:47:32;5.10;99.90
19496;DHT22;9888;48.606;9.630;2023-02-04T09:49:59;5.20;99.90
19496;DHT22;9888;48.606;9.630;2023-02-04T09:52:28;5.10;99.90
19496;DHT22;9888;48.606;9.630;2023-02-04T09:54:59;5.00;99.90
19496;DHT22;9888;48.606;9.630;2023-02-04T09:57:27;4.80;99.90
19496;DHT22;9888;48.606;9.630;2023-02-04T09:59:56;4.80;99.90
19496;DHT22;9888;48.606;9.630;2023-02-04T10:02:25;4.80;99.90
19496;DHT22;9888;48.606;9.630;2023-02-04T10:04:56;4.60;99.90
19496;DHT22;9888;48.606;9.630;2023-02-04T10:07:26;4.50;99.90
19496;DHT22;9888;48.606;9.630;2023-02-04T10:09:56;4.70;99.90
19496;DHT22;9888;48.606;9.630;2023-02-04T10:12:24;4.70;99.90
19496;DHT22;9888;48.606;9.630;2023-02-04T10:14:53;4.90;99.90
19496;DHT22;9888;48.606;9.630;2023-02-04T10:17:22;4.80;99.90
19496;DHT22;9888;48.606;9.630;2023-02-04T10:19:51;4.80;99.90
19496;DHT22;9888;48.606;9.630;2023-02-04T10:22:20;5.00;99.90
19496;DHT22;9888;48.606;9.630;2023-02-04T10:24:49;5.30;99.90
19496;DHT22;9888;48.606;9.630;2023-02-04T10:27:20;5.50;99.90
19496;DHT22;9888;48.606;9.630;2023-02-04T10:30:00;5.50;99.90
19496;DHT22;9888;48.606;9.630;2023-02-04T10:32:32;5.50;99.90
19496;DHT22;9888;48.606;9.630;2023-02-04T10:35:03;5.30;99.90
19496;DHT22;9888;48.606;9.630;2023-02-04T10:37:32;5.10;99.90
19496;DHT22;9888;48.606;9.630;2023-02-04T10:40:01;4.80;99.90
19496;DHT22;9888;48.606;9.630;2023-02-04T10:42:32;4.70;99.90
19496;DHT22;9888;48.606;9.630;2023-02-04T10:45:20;4.70;99.90
19496;DHT22;9888;48.606;9.630;2023-02-04T10:47:54;4.80;99.90
19496;DHT22;9888;48.606;9.630;2023-02-04T10:50:27;5.00;99.90
19496;DHT22;9888;48.606;9.630;2023-02-04T10:52:59;5.10;99.90
19496;DHT22;9888;48.606;9.630;2023-02-04T10:55:49;5.00;99.90
19496;DHT22;9888;48.606;9.630;2023-02-04T10:58:23;5.30;99.90
19496;DHT22;9888;48.606;9.630;2023-02-04T11:01:29;5.40;99.90
19496;DHT22;9888;48.606;9.630;2023-02-04T11:03:58;5.60;99.90
19496;DHT22;9888;48.606;9.630;2023-02-04T11:06:50;5.80;99.90
19496;DHT22;9888;48.606;9.630;2023-02-04T11:09:19;5.80;99.90
19496;DHT22;9888;48.606;9.630;2023-02-04T11:11:49;5.80;99.90
19496;DHT22;9888;48.606;9.630;2023-02-04T11:14:27;5.70;99.90
19496;DHT22;9888;48.606;9.630;2023-02-04T11:16:57;5.70;99.90
19496;DHT22;9888;48.606;9.630;2023-02-04T11:19:37;5.60;99.90
19496;DHT22;9888;48.606;9.630;2023-02-04T11:22:21;5.40;99.90
19496;DHT22;9888;48.606;9.630;2023-02-04T11:24:52;5.40;99.90
19496;DHT22;9888;48.606;9.630;2023-02-04T11:27:36;5.40;99.90
19496;DHT22;9888;48.606;9.630;2023-02-04T11:30:18;5.30;99.90
19496;DHT22;9888;48.606;9.630;2023-02-04T11:33:04;5.30;99.90
19496;DHT22;9888;48.606;9.630;2023-02-04T11:36:02;5.50;99.90
19496;DHT22;9888;48.606;9.630;2023-02-04T11:38:34;5.70;99.90
19496;DHT22;9888;48.606;9.630;2023-02-04T11:41:03;5.80;99.90
19496;DHT22;9888;48.606;9.630;2023-02-04T11:43:37;5.70;99.90
19496;DHT22;9888;48.606;9.630;2023-02-04T11:46:18;5.50;99.90
19496;DHT22;9888;48.606;9.630;2023-02-04T11:48:58;5.30;99.90
19496;DHT22;9888;48.606;9.630;2023-02-04T11:54:35;5.00;99.90
19496;DHT22;9888;48.606;9.630;2023-02-04T11:57:04;5.00;99.90
19496;DHT22;9888;48.606;9.630;2023-02-04T11:59:33;5.20;99.90
19496;DHT22;9888;48.606;9.630;2023-02-04T12:02:17;5.40;99.90
19496;DHT22;9888;48.606;9.630;2023-02-04T12:05:07;5.50;99.90
19496;DHT22;9888;48.606;9.630;2023-02-04T12:07:45;5.70;99.90
19496;DHT22;9888;48.606;9.630;2023-02-04T12:10:24;5.90;99.90
19496;DHT22;9888;48.606;9.630;2023-02-04T12:12:55;6.10;99.90
19496;DHT22;9888;48.606;9.630;2023-02-04T12:15:39;6.20;99.90
19496;DHT22;9888;48.606;9.630;2023-02-04T12:18:10;6.30;99.90
19496;DHT22;9888;48.606;9.630;2023-02-04T12:20:43;6.30;99.90
19496;DHT22;9888;48.606;9.630;2023-02-04T12:23:11;6.40;99.90
19496;DHT22;9888;48.606;9.630;2023-02-04T12:25:40;6.50;99.90
19496;DHT22;9888;48.606;9.630;2023-02-04T12:28:10;6.50;99.90
19496;DHT22;9888;48.606;9.630;2023-02-04T12:30:44;6.50;99.90
19496;DHT22;9888;48.606;9.630;2023-02-04T12:33:12;6.60;99.90
19496;DHT22;9888;48.606;9.630;2023-02-04T12:35:46;6.40;99.90
19496;DHT22;9888;48.606;9.630;2023-02-04T12:38:16;6.20;99.90
19496;DHT22;9888;48.606;9.630;2023-02-04T12:40:57;6.00;99.90
19496;DHT22;9888;48.606;9.630;2023-02-04T12:43:28;5.70;99.90
19496;DHT22;9888;48.606;9.630;2023-02-04T12:45:58;5.50;99.90
19496;DHT22;9888;48.606;9.630;2023-02-04T12:48:41;5.40;99.90
19496;DHT22;9888;48.606;9.630;2023-02-04T12:51:10;5.40;99.90
19496;DHT22;9888;48.606;9.630;2023-02-04T12:53:39;5.40;99.90
19496;DHT22;9888;48.606;9.630;2023-02-04T12:56:09;5.40;99.90
19496;DHT22;9888;48.606;9.630;2023-02-04T12:58:40;5.40;99.90
19496;DHT22;9888;48.606;9.630;2023-02-04T13:01:09;5.40;99.90
19496;DHT22;9888;48.606;9.630;2023-02-04T13:03:38;5.40;99.90
19496;DHT22;9888;48.606;9.630;2023-02-04T13:06:06;5.30;99.90
19496;DHT22;9888;48.606;9.630;2023-02-04T13:08:34;5.30;99.90
19496;DHT22;9888;48.606;9.630;2023-02-04T13:11:01;5.20;99.90
19496;DHT22;9888;48.606;9.630;2023-02-04T13:13:29;5.20;99.90
19496;DHT22;9888;48.606;9.630;2023-02-04T13:15:56;5.40;99.90
19496;DHT22;9888;48.606;9.630;2023-02-04T13:18:24;5.40;99.90
19496;DHT22;9888;48.606;9.630;2023-02-04T13:20:52;5.50;99.90
19496;DHT22;9888;48.606;9.630;2023-02-04T13:23:19;5.70;99.90
19496;DHT22;9888;48.606;9.630;2023-02-04T13:25:46;5.90;99.90
19496;DHT22;9888;48.606;9.630;2023-02-04T13:28:13;6.00;99.90
19496;DHT22;9888;48.606;9.630;2023-02-04T13:30:41;6.30;99.90
19496;DHT22;9888;48.606;9.630;2023-02-04T13:33:08;6.60;99.90
19496;DHT22;9888;48.606;9.630;2023-02-04T13:35:35;7.00;99.90
19496;DHT22;9888;48.606;9.630;2023-02-04T13:38:03;7.20;99.90
19496;DHT22;9888;48.606;9.630;2023-02-04T13:40:30;7.30;99.90
19496;DHT22;9888;48.606;9.630;2023-02-04T13:42:58;7.30;99.90
19496;DHT22;9888;48.606;9.630;2023-02-04T13:45:25;7.40;99.90
19496;DHT22;9888;48.606;9.630;2023-02-04T13:47:53;7.50;99.90
19496;DHT22;9888;48.606;9.630;2023-02-04T13:50:21;7.30;99.90
19496;DHT22;9888;48.606;9.630;2023-02-04T13:52:48;7.00;99.90
19496;DHT22;9888;48.606;9.630;2023-02-04T13:55:15;6.90;99.90
19496;DHT22;9888;48.606;9.630;2023-02-04T13:57:44;6.80;99.90
19496;DHT22;9888;48.606;9.630;2023-02-04T14:00:13;6.60;99.90
19496;DHT22;9888;48.606;9.630;2023-02-04T14:02:40;6.30;99.90
19496;DHT22;9888;48.606;9.630;2023-02-04T14:05:12;6.10;99.90
19496;DHT22;9888;48.606;9.630;2023-02-04T14:07:39;6.10;99.90
19496;DHT22;9888;48.606;9.630;2023-02-04T14:10:07;6.50;99.90
19496;DHT22;9888;48.606;9.630;2023-02-04T14:12:34;7.00;99.90
19496;DHT22;9888;48.606;9.630;2023-02-04T14:15:01;7.00;99.90
19496;DHT22;9888;48.606;9.630;2023-02-04T14:17:29;7.00;99.90
19496;DHT22;9888;48.606;9.630;2023-02-04T14:19:56;6.90;99.90
19496;DHT22;9888;48.606;9.630;2023-02-04T14:22:25;7.00;99.90
19496;DHT22;9888;48.606;9.630;2023-02-04T14:24:52;7.30;99.90
19496;DHT22;9888;48.606;9.630;2023-02-04T14:27:19;7.60;99.90
19496;DHT22;9888;48.606;9.630;2023-02-04T14:29:46;7.60;99.90
19496;DHT22;9888;48.606;9.630;2023-02-04T14:32:13;7.70;99.90
19496;DHT22;9888;48.606;9.630;2023-02-04T14:34:40;7.40;99.90
19496;DHT22;9888;48.606;9.630;2023-02-04T14:37:07;7.20;99.90
19496;DHT22;9888;48.606;9.630;2023-02-04T14:39:34;7.00;99.90
19496;DHT22;9888;48.606;9.630;2023-02-04T14:42:01;7.00;99.90
19496;DHT22;9888;48.606;9.630;2023-02-04T14:44:34;6.90;99.90
19496;DHT22;9888;48.606;9.630;2023-02-04T14:47:01;6.80;99.90
19496;DHT22;9888;48.606;9.630;2023-02-04T14:49:28;6.70;99.90
19496;DHT22;9888;48.606;9.630;2023-02-04T14:51:55;6.60;99.90
19496;DHT22;9888;48.606;9.630;2023-02-04T14:54:22;6.60;99.90
19496;DHT22;9888;48.606;9.630;2023-02-04T14:56:49;6.70;99.90
19496;DHT22;9888;48.606;9.630;2023-02-04T14:59:16;6.50;99.90
19496;DHT22;9888;48.606;9.630;2023-02-04T15:01:43;6.60;99.90
19496;DHT22;9888;48.606;9.630;2023-02-04T15:04:11;6.70;99.90
19496;DHT22;9888;48.606;9.630;2023-02-04T15:06:38;6.70;99.90
19496;DHT22;9888;48.606;9.630;2023-02-04T15:09:05;6.40;99.90
19496;DHT22;9888;48.606;9.630;2023-02-04T15:11:33;6.30;99.90
19496;DHT22;9888;48.606;9.630;2023-02-04T15:14:02;6.10;99.90
19496;DHT22;9888;48.606;9.630;2023-02-04T15:16:29;5.90;99.90
19496;DHT22;9888;48.606;9.630;2023-02-04T15:18:56;5.60;99.90
19496;DHT22;9888;48.606;9.630;2023-02-04T15:21:22;5.40;99.90
19496;DHT22;9888;48.606;9.630;2023-02-04T15:23:49;5.10;99.90
19496;DHT22;9888;48.606;9.630;2023-02-04T15:26:17;5.00;99.90
19496;DHT22;9888;48.606;9.630;2023-02-04T15:28:44;5.00;99.90
19496;DHT22;9888;48.606;9.630;2023-02-04T15:31:12;5.00;99.90
19496;DHT22;9888;48.606;9.630;2023-02-04T15:33:38;5.10;99.90
19496;DHT22;9888;48.606;9.630;2023-02-04T15:36:05;5.10;99.90
19496;DHT22;9888;48.606;9.630;2023-02-04T15:38:32;5.20;99.90
19496;DHT22;9888;48.606;9.630;2023-02-04T15:40:59;5.10;99.90
19496;DHT22;9888;48.606;9.630;2023-02-04T15:43:27;5.10;99.90
19496;DHT22;9888;48.606;9.630;2023-02-04T15:45:54;5.10;99.90
19496;DHT22;9888;48.606;9.630;2023-02-04T15:48:21;5.10;99.90
19496;DHT22;9888;48.606;9.630;2023-02-04T15:50:50;5.00;99.90
19496;DHT22;9888;48.606;9.630;2023-02-04T15:53:17;4.90;99.90
19496;DHT22;9888;48.606;9.630;2023-02-04T15:55:44;4.70;99.90
19496;DHT22;9888;48.606;9.630;2023-02-04T15:58:10;4.60;99.90
19496;DHT22;9888;48.606;9.630;2023-02-04T16:00:38;4.50;99.90
19496;DHT22;9888;48.606;9.630;2023-02-04T16:03:05;4.40;99.90
19496;DHT22;9888;48.606;9.630;2023-02-04T16:05:32;4.20;99.90
19496;DHT22;9888;48.606;9.630;2023-02-04T16:07:59;4.00;99.90
19496;DHT22;9888;48.606;9.630;2023-02-04T16:10:26;3.90;99.90
19496;DHT22;9888;48.606;9.630;2023-02-04T16:12:53;3.80;99.90
19496;DHT22;9888;48.606;9.630;2023-02-04T16:15:23;3.60;99.90
19496;DHT22;9888;48.606;9.630;2023-02-04T16:17:50;3.50;99.90
19496;DHT22;9888;48.606;9.630;2023-02-04T16:20:17;3.30;99.90
19496;DHT22;9888;48.606;9.630;2023-02-04T16:22:45;3.20;99.90